Time;durP1;ratioP1;P1;durP2;ratioP2;P2;SDS_P1;SDS_P2;PMS_P1;PMS_P2;Temp;Humidity;BMP_temperature;BMP_pressure;BME280_temperature;BME280_humidity;BME280_pressure;Samples;Min_cycle;Max_cycle;Signal;HPM_P1;HPM_P2
2022/05/15 00:00:38;;;;;;;6.55;4.68;;;;;;;16.48;93.12;96944.44;5006376;28;20061;-67
2022/05/15 00:03:16;;;;;;;5.78;4.50;;;;;;;16.42;92.75;96934.84;5006402;28;20061;-66
2022/05/15 00:05:44;;;;;;;8.10;4.95;;;;;;;16.26;92.17;96908.63;5006450;28;20519;-67
2022/05/15 00:08:13;;;;;;;9.07;5.22;;;;;;;16.44;92.27;96938.06;5024406;28;20438;-63
2022/05/15 00:10:41;;;;;;;8.40;4.57;;;;;;;16.48;91.57;96950.03;5045710;28;20177;-64
2022/05/15 00:13:11;;;;;;;8.32;5.00;;;;;;;16.27;91.33;96905.41;5027831;28;20059;-63
2022/05/15 00:15:40;;;;;;;4.88;4.22;;;;;;;16.52;91.32;96950.78;5045407;28;20049;-63
2022/05/15 00:18:18;;;;;;;6.75;4.70;;;;;;;16.48;91.75;96938.03;5045350;28;20071;-63
2022/05/15 00:20:47;;;;;;;5.70;4.10;;;;;;;16.56;90.01;96943.19;5045993;28;20053;-63
2022/05/15 00:23:14;;;;;;;7.97;4.60;;;;;;;16.54;88.97;96953.16;5046599;28;20479;-66
2022/05/15 00:25:42;;;;;;;6.97;4.10;;;;;;;16.10;89.30;96886.78;5045724;28;20084;-65
2022/05/15 00:28:10;;;;;;;8.60;4.53;;;;;;;16.53;90.04;96941.19;5028311;28;20057;-63
2022/05/15 00:30:37;;;;;;;6.20;5.00;;;;;;;16.11;90.56;96879.97;5046027;28;20080;-63
2022/05/15 00:33:06;;;;;;;9.20;5.18;;;;;;;16.13;90.25;96873.97;5044502;28;20049;-67
2022/05/15 00:35:35;;;;;;;6.53;4.20;;;;;;;15.82;89.47;96842.25;5045499;28;20053;-66
2022/05/15 00:38:04;;;;;;;7.13;5.07;;;;;;;16.52;88.56;96934.00;5019641;28;20048;-67
2022/05/15 00:40:31;;;;;;;10.00;4.60;;;;;;;16.48;89.83;96938.84;5046171;28;20049;-67
2022/05/15 00:42:59;;;;;;;7.55;4.97;;;;;;;16.47;90.85;96939.25;5045434;28;20439;-66
2022/05/15 00:45:27;;;;;;;5.28;4.68;;;;;;;16.49;88.85;96934.81;5027521;28;20048;-66
2022/05/15 00:47:54;;;;;;;6.63;5.10;;;;;;;16.33;91.81;96934.50;5045474;28;20085;-67
2022/05/15 00:50:27;;;;;;;7.47;5.00;;;;;;;16.37;92.34;96938.09;5045101;28;20049;-67
2022/05/15 00:52:59;;;;;;;9.50;5.60;;;;;;;16.26;92.56;96926.19;5044983;28;20140;-66
2022/05/15 00:55:44;;;;;;;8.23;5.85;;;;;;;16.22;92.95;96946.97;5027232;28;20254;-67
2022/05/15 00:58:25;;;;;;;7.55;5.30;;;;;;;16.04;94.99;96935.94;5045835;28;20103;-66
2022/05/15 01:00:52;;;;;;;6.75;5.05;;;;;;;16.11;94.75;96946.25;5045074;28;20056;-67
2022/05/15 01:03:21;;;;;;;6.00;4.93;;;;;;;16.12;92.95;96948.63;5044613;28;20534;-67
2022/05/15 01:05:51;;;;;;;10.55;4.45;;;;;;;16.01;92.68;96945.09;5044943;28;20111;-67
2022/05/15 01:08:20;;;;;;;6.72;4.22;;;;;;;15.65;93.05;96910.19;5035093;28;20050;-68
2022/05/15 01:10:51;;;;;;;8.18;4.40;;;;;;;15.82;93.59;96940.00;5024517;28;20137;-66
2022/05/15 01:13:21;;;;;;;10.32;5.30;;;;;;;15.84;91.94;96936.84;5025159;28;20516;-67
2022/05/15 01:15:48;;;;;;;9.57;4.72;;;;;;;15.66;91.90;96914.59;5024649;28;20451;-65
2022/05/15 01:18:23;;;;;;;8.57;4.28;;;;;;;15.85;90.78;96944.81;5007125;28;20061;-63
2022/05/15 01:20:58;;;;;;;5.43;4.43;;;;;;;15.80;91.03;96948.03;5007312;28;20045;-63
2022/05/15 01:23:24;;;;;;;6.05;4.30;;;;;;;15.31;92.34;96892.38;5024527;28;20054;-65
2022/05/15 01:25:52;;;;;;;9.60;5.38;;;;;;;15.57;93.34;96932.97;5024966;28;20050;-62
2022/05/15 01:28:24;;;;;;;7.88;4.75;;;;;;;14.60;93.20;96824.06;5024924;28;20061;-65
2022/05/15 01:30:53;;;;;;;14.03;5.97;;;;;;;15.70;93.63;96940.47;5039777;28;20503;-63
2022/05/15 01:33:21;;;;;;;14.80;5.75;;;;;;;15.70;94.63;96940.47;5039992;28;20053;-63
2022/05/15 01:35:48;;;;;;;6.20;4.55;;;;;;;15.61;93.31;96939.31;5024467;28;20214;-65
2022/05/15 01:38:18;;;;;;;7.30;4.30;;;;;;;15.54;92.73;96940.16;5024478;28;20059;-64
2022/05/15 01:40:48;;;;;;;6.28;4.35;;;;;;;15.40;92.81;96940.22;5024180;28;20588;-63
2022/05/15 01:43:15;;;;;;;6.57;5.30;;;;;;;15.33;93.00;96945.81;5024491;28;20057;-65
2022/05/15 01:45:41;;;;;;;8.30;4.90;;;;;;;15.36;91.45;96939.41;5023983;28;20061;-65
2022/05/15 01:48:08;;;;;;;8.30;3.88;;;;;;;15.13;92.81;96941.84;5024603;28;20565;-62
2022/05/15 01:50:35;;;;;;;8.35;4.63;;;;;;;15.19;94.11;96957.78;5007111;28;20057;-63
2022/05/15 01:53:02;;;;;;;7.78;4.35;;;;;;;15.07;94.75;96949.84;4986854;28;20531;-66
2022/05/15 01:55:29;;;;;;;8.40;5.05;;;;;;;15.17;94.94;96959.41;5004494;28;20057;-62
2022/05/15 01:57:55;;;;;;;7.63;5.22;;;;;;;15.21;94.48;96970.56;4986767;28;20054;-65
2022/05/15 02:00:24;;;;;;;6.93;4.72;;;;;;;14.97;95.17;96950.66;4986875;28;20483;-62
2022/05/15 02:02:51;;;;;;;8.50;5.13;;;;;;;14.67;95.43;96913.22;5004390;28;20061;-63
2022/05/15 02:05:19;;;;;;;10.13;5.75;;;;;;;15.00;96.40;96965.81;5004251;28;20201;-63
2022/05/15 02:07:48;;;;;;;14.80;6.47;;;;;;;14.99;96.51;96975.34;5022430;28;20069;-63
2022/05/15 02:10:15;;;;;;;6.97;4.70;;;;;;;14.79;98.36;96988.13;5042547;28;20550;-62
2022/05/15 02:12:43;;;;;;;8.23;5.05;;;;;;;14.51;98.09;96926.81;5043101;28;20085;-62
2022/05/15 02:15:10;;;;;;;7.57;4.97;;;;;;;14.64;98.69;96947.50;5043578;28;20052;-61
2022/05/15 02:17:37;;;;;;;7.20;4.75;;;;;;;14.56;99.60;96940.31;5025272;28;20536;-62
2022/05/15 02:20:06;;;;;;;8.18;4.95;;;;;;;14.76;100.00;96977.78;5043442;28;20067;-65
2022/05/15 02:22:32;;;;;;;9.43;5.30;;;;;;;14.84;98.86;96982.16;5043541;28;20053;-63
2022/05/15 02:25:00;;;;;;;10.80;5.85;;;;;;;14.99;96.09;96981.75;5042860;28;20052;-62
2022/05/15 02:27:26;;;;;;;9.30;5.63;;;;;;;14.50;97.99;96986.53;5043436;28;20060;-62
2022/05/15 02:29:53;;;;;;;13.18;6.32;;;;;;;13.23;100.00;96868.47;5058375;28;20106;-61
2022/05/15 02:32:20;;;;;;;11.85;6.47;;;;;;;14.09;100.00;96988.00;5025304;28;20049;-63
2022/05/15 02:34:46;;;;;;;7.82;5.40;;;;;;;13.97;100.00;96946.63;5043166;28;20063;-62
2022/05/15 02:37:13;;;;;;;8.55;5.72;;;;;;;14.23;100.00;97000.00;5042774;28;20049;-62
2022/05/15 02:39:40;;;;;;;10.65;6.47;;;;;;;14.18;100.00;97007.94;5025455;28;20056;-61
2022/05/15 02:42:06;;;;;;;11.43;6.97;;;;;;;14.22;100.00;97019.88;5042878;28;20090;-62
2022/05/15 02:44:33;;;;;;;15.32;7.30;;;;;;;14.27;100.00;97005.59;5043208;28;20503;-64
2022/05/15 02:47:00;;;;;;;11.75;6.07;;;;;;;14.27;100.00;97008.41;5058170;28;20064;-62
2022/05/15 02:52:12;;;;;;;7.97;5.55;;;;;;;14.21;100.00;97001.59;5043346;28;20080;-65
2022/05/15 02:54:39;;;;;;;7.55;5.65;;;;;;;13.76;100.00;96922.31;5042640;28;20068;-61
2022/05/15 02:57:07;;;;;;;7.40;5.65;;;;;;;14.29;100.00;97008.81;5027397;28;20056;-62
2022/05/15 02:59:34;;;;;;;7.85;5.75;;;;;;;14.33;99.97;97017.97;5062353;28;20057;-62
2022/05/15 03:02:01;;;;;;;6.90;4.80;;;;;;;14.34;98.74;97025.13;5047584;28;20053;-64
2022/05/15 03:04:28;;;;;;;10.05;5.15;;;;;;;14.32;98.14;97031.06;5046898;28;20071;-62
2022/05/15 03:06:55;;;;;;;7.97;5.10;;;;;;;13.79;98.27;96968.84;5029497;28;20060;-60
2022/05/15 03:09:22;;;;;;;11.88;5.50;;;;;;;14.25;99.36;97024.69;5031815;28;20049;-61
2022/05/15 03:11:48;;;;;;;9.27;5.53;;;;;;;13.97;100.00;96968.91;5008887;28;20064;-60
2022/05/15 03:14:15;;;;;;;8.30;4.95;;;;;;;14.29;100.00;97025.53;5026760;28;20080;-60
2022/05/15 03:16:42;;;;;;;9.63;6.20;;;;;;;14.00;100.00;96990.38;5026546;28;20057;-60
2022/05/15 03:19:09;;;;;;;10.75;5.53;;;;;;;14.30;100.00;97043.81;5009012;28;20134;-59
2022/05/15 03:21:35;;;;;;;8.23;4.85;;;;;;;14.37;99.25;97032.72;5026749;28;20650;-63
2022/05/15 03:24:12;;;;;;;7.72;5.65;;;;;;;14.00;98.31;96980.06;5026966;28;20045;-60
2022/05/15 03:26:42;;;;;;;10.45;6.38;;;;;;;14.39;96.85;97035.88;5008623;28;20053;-61
2022/05/15 03:29:11;;;;;;;8.32;5.95;;;;;;;14.42;97.24;97029.50;5008969;28;20064;-59
2022/05/15 03:31:39;;;;;;;10.02;5.68;;;;;;;14.14;95.13;96988.44;5026822;28;20515;-61
2022/05/15 03:34:09;;;;;;;7.35;5.32;;;;;;;14.55;95.24;97039.09;5026167;28;20085;-59
2022/05/15 03:36:37;;;;;;;8.18;5.78;;;;;;;14.60;95.87;97041.50;5007579;28;20331;-59
2022/05/15 03:39:07;;;;;;;7.57;5.25;;;;;;;14.63;96.84;97035.13;5015914;28;20057;-60
2022/05/15 03:41:35;;;;;;;7.93;5.38;;;;;;;14.58;95.87;97032.72;5026117;28;20482;-60
2022/05/15 03:44:02;;;;;;;9.88;5.20;;;;;;;14.32;95.74;97002.44;5026749;28;20139;-59
2022/05/15 03:46:29;;;;;;;8.45;4.90;;;;;;;14.71;94.43;97048.69;5025809;28;20436;-59
2022/05/15 03:48:56;;;;;;;6.63;5.18;;;;;;;14.71;94.36;97043.09;5026292;28;20049;-59
2022/05/15 03:51:23;;;;;;;7.60;4.90;;;;;;;14.73;94.73;97042.72;5041413;28;20053;-60
2022/05/15 03:53:50;;;;;;;6.53;4.90;;;;;;;14.74;94.52;97024.78;5026381;28;20053;-60
2022/05/15 03:56:17;;;;;;;6.53;5.00;;;;;;;14.81;93.92;97024.78;5008124;28;20057;-61
2022/05/15 03:58:49;;;;;;;8.38;5.55;;;;;;;14.96;93.65;97038.34;5040726;28;20545;-59
2022/05/15 04:01:16;;;;;;;6.47;4.90;;;;;;;14.59;93.02;96978.56;5025694;28;20051;-60
2022/05/15 04:03:42;;;;;;;13.82;5.63;;;;;;;15.01;92.37;97051.06;5025825;28;20068;-62
2022/05/15 04:06:09;;;;;;;7.40;5.20;;;;;;;12.64;92.12;96669.66;5026486;28;20061;-59
2022/05/15 04:08:37;;;;;;;13.20;5.43;;;;;;;14.63;92.84;96984.94;5014884;28;20053;-62
2022/05/15 04:11:03;;;;;;;6.03;4.85;;;;;;;15.03;91.52;96998.47;5045555;28;20084;-60
2022/05/15 04:13:30;;;;;;;10.43;6.10;;;;;;;15.04;90.63;96977.75;5045706;28;20060;-62
2022/05/15 04:15:57;;;;;;;8.50;5.47;;;;;;;15.47;90.83;97035.09;5027488;28;20063;-63
2022/05/15 04:18:24;;;;;;;9.30;5.55;;;;;;;15.48;92.47;97039.47;5045672;28;20457;-60
2022/05/15 04:20:50;;;;;;;10.80;5.75;;;;;;;15.87;90.83;97053.34;5045804;28;20061;-61
2022/05/15 04:23:17;;;;;;;7.28;5.65;;;;;;;15.94;90.26;97054.13;5028058;28;20057;-60
2022/05/15 04:25:45;;;;;;;7.32;5.13;;;;;;;15.91;89.10;97032.56;5027271;28;20507;-60
2022/05/15 04:28:12;;;;;;;7.00;4.72;;;;;;;16.24;87.16;97051.59;5009190;28;20240;-60
2022/05/15 04:30:38;;;;;;;6.32;4.82;;;;;;;16.36;86.87;97055.94;5023548;28;20111;-60
2022/05/15 04:33:05;;;;;;;9.63;4.78;;;;;;;16.52;85.04;97062.63;5025982;28;20435;-59
2022/05/15 04:35:32;;;;;;;6.13;4.78;;;;;;;16.64;83.81;97048.16;5025659;28;20057;-59
2022/05/15 04:37:58;;;;;;;6.35;4.65;;;;;;;16.87;83.16;97066.41;5026091;28;20251;-60
2022/05/15 04:40:25;;;;;;;7.53;4.30;;;;;;;16.63;82.49;97022.63;5040826;28;20068;-60
2022/05/15 04:42:52;;;;;;;9.57;4.88;;;;;;;17.04;81.33;97065.50;5007284;28;20053;-60
2022/05/15 04:45:19;;;;;;;6.63;4.85;;;;;;;17.01;81.12;97043.94;5024809;28;20061;-62
2022/05/15 04:47:46;;;;;;;8.25;5.10;;;;;;;17.28;81.18;97064.47;5024799;28;20510;-59
2022/05/15 04:50:14;;;;;;;8.15;5.20;;;;;;;17.33;82.22;97066.81;5024535;28;20076;-60
2022/05/15 04:52:42;;;;;;;10.77;6.32;;;;;;;17.52;82.38;97063.47;5024338;28;20107;-59
2022/05/15 04:55:09;;;;;;;6.95;4.82;;;;;;;17.68;81.70;97060.91;5005586;28;20467;-60
2022/05/15 04:57:36;;;;;;;7.30;5.57;;;;;;;15.44;81.46;96700.94;5171294;23;21352;-63
2022/05/15 05:00:10;;;;;;;7.32;5.43;;;;;;;17.84;81.77;97063.94;5019998;28;20539;-63
2022/05/15 05:02:37;;;;;;;7.13;5.30;;;;;;;17.92;81.22;97060.63;5031573;28;20100;-64
2022/05/15 05:05:09;;;;;;;7.13;5.38;;;;;;;17.59;81.84;97004.59;5023663;28;20068;-64
2022/05/15 05:07:37;;;;;;;9.25;5.72;;;;;;;18.08;82.39;97069.25;5039505;28;20427;-65
2022/05/15 05:10:05;;;;;;;6.88;5.65;;;;;;;18.27;81.84;97059.44;5025362;28;20053;-64
2022/05/15 05:12:32;;;;;;;7.40;5.55;;;;;;;18.51;81.68;97052.69;5030489;28;20049;-63
2022/05/15 05:14:59;;;;;;;9.38;6.93;;;;;;;18.60;82.28;97060.59;5023424;28;20403;-64
2022/05/15 05:17:26;;;;;;;11.38;6.50;;;;;;;18.78;81.94;97056.31;5023178;28;20057;-64
2022/05/15 05:19:52;;;;;;;10.15;6.85;;;;;;;18.95;81.09;97058.06;5020112;28;20068;-65
2022/05/15 05:22:19;;;;;;;10.70;6.35;;;;;;;19.13;80.90;97067.00;5042795;28;20578;-64
2022/05/15 05:24:46;;;;;;;10.77;6.22;;;;;;;19.29;80.09;97058.75;5025107;28;20080;-65
2022/05/15 05:27:12;;;;;;;12.80;6.47;;;;;;;19.41;79.29;97058.13;5043055;28;20053;-65
2022/05/15 05:29:39;;;;;;;10.88;6.90;;;;;;;19.04;78.76;96990.16;5043259;28;20063;-64
2022/05/15 05:32:07;;;;;;;11.50;6.32;;;;;;;19.62;78.50;97042.13;5042962;28;20060;-65
2022/05/15 05:34:34;;;;;;;6.57;5.95;;;;;;;19.89;77.40;97051.22;5042783;28;20056;-65
2022/05/15 05:37:01;;;;;;;8.85;6.35;;;;;;;19.32;77.32;96958.78;5024471;28;20053;-64
2022/05/15 05:39:30;;;;;;;10.68;5.80;;;;;;;19.89;76.26;97017.50;5042765;28;20068;-64
2022/05/15 05:41:57;;;;;;;12.15;7.18;;;;;;;20.33;75.41;97060.00;5024691;28;20045;-64
2022/05/15 05:44:25;;;;;;;12.07;7.10;;;;;;;20.48;75.04;97049.25;5042678;28;20056;-64
2022/05/15 05:46:53;;;;;;;9.43;6.55;;;;;;;20.43;76.09;97052.56;5042503;28;20518;-65
2022/05/15 05:49:20;;;;;;;14.38;6.88;;;;;;;20.38;75.96;97016.50;5042424;28;20523;-64
2022/05/15 05:51:47;;;;;;;14.85;6.75;;;;;;;20.49;74.74;97008.59;5042165;28;20045;-64
2022/05/15 05:54:14;;;;;;;8.13;6.10;;;;;;;20.57;74.18;97001.59;5042568;28;20076;-65
2022/05/15 05:56:40;;;;;;;9.95;6.60;;;;;;;20.77;74.50;97022.06;5025697;28;20057;-64
2022/05/15 05:59:07;;;;;;;13.38;6.78;;;;;;;20.88;73.91;97014.16;5023740;28;20061;-65
2022/05/15 06:01:34;;;;;;;9.55;7.13;;;;;;;21.37;72.55;97046.75;5024182;28;20053;-64
2022/05/15 06:06:52;;;;;;;8.55;6.63;;;;;;;19.74;70.83;96747.16;5024136;28;20068;-66
2022/05/15 06:09:18;;;;;;;8.57;6.43;;;;;;;21.65;70.64;97048.84;5023564;28;20072;-65
2022/05/15 06:11:45;;;;;;;8.50;6.18;;;;;;;21.73;71.37;97044.59;5023808;28;20049;-66
2022/05/15 06:14:12;;;;;;;10.07;7.18;;;;;;;21.84;70.74;97033.88;5023443;28;20522;-67
2022/05/15 06:16:38;;;;;;;9.52;6.97;;;;;;;22.00;69.97;97047.91;5023216;28;20428;-65
2022/05/15 06:19:05;;;;;;;6.75;6.05;;;;;;;22.21;69.09;97035.22;5023505;28;20049;-65
2022/05/15 06:21:32;;;;;;;11.45;6.72;;;;;;;22.29;69.10;97037.41;5023752;28;20503;-68
2022/05/15 06:23:58;;;;;;;11.23;6.28;;;;;;;22.35;68.68;97034.84;5006569;28;20486;-68
2022/05/15 06:26:25;;;;;;;8.48;5.57;;;;;;;22.48;68.38;97039.25;5006506;28;20057;-65
2022/05/15 06:28:51;;;;;;;8.15;6.13;;;;;;;22.42;68.27;97015.66;5005991;28;20057;-65
2022/05/15 06:31:18;;;;;;;10.43;6.45;;;;;;;22.44;68.35;97035.75;5022521;28;20068;-67
2022/05/15 06:33:45;;;;;;;7.70;6.43;;;;;;;22.74;67.56;97034.47;5023609;28;20052;-68
2022/05/15 06:36:12;;;;;;;10.10;7.15;;;;;;;22.86;66.54;97035.72;5023696;28;20056;-67
2022/05/15 06:38:41;;;;;;;9.93;6.97;;;;;;;23.05;66.45;97040.34;5023575;28;20495;-68
2022/05/15 06:41:09;;;;;;;7.05;5.95;;;;;;;23.21;65.19;97034.56;5005799;28;20084;-68
2022/05/15 06:43:36;;;;;;;7.15;6.50;;;;;;;22.76;64.29;97031.19;5023646;28;20053;-68
2022/05/15 06:46:03;;;;;;;12.65;6.55;;;;;;;22.71;66.68;97035.38;5006013;28;20137;-69
2022/05/15 06:48:30;;;;;;;7.60;5.82;;;;;;;22.69;66.08;96997.50;5024027;28;20471;-68
2022/05/15 06:50:59;;;;;;;7.78;6.28;;;;;;;23.05;64.23;97043.16;5023504;28;20053;-68
2022/05/15 06:53:26;;;;;;;9.70;6.30;;;;;;;23.31;63.56;97033.47;5005750;28;20061;-68
2022/05/15 06:58:38;;;;;;;7.32;6.63;;;;;;;23.44;63.24;97045.56;5042730;28;20317;-68
2022/05/15 07:01:05;;;;;;;8.60;6.82;;;;;;;23.01;64.06;97008.59;5025362;28;20056;-67
2022/05/15 07:03:32;;;;;;;7.47;5.93;;;;;;;21.06;63.42;96662.44;5043344;28;20049;-67
2022/05/15 07:05:58;;;;;;;5.50;5.00;;;;;;;22.91;61.97;96941.91;5043204;28;20446;-68
2022/05/15 07:08:26;;;;;;;6.97;6.10;;;;;;;23.19;63.23;97045.56;5025962;28;20060;-68
2022/05/15 07:10:52;;;;;;;8.02;5.47;;;;;;;23.06;64.15;97039.88;5043476;28;20049;-69
2022/05/15 07:13:19;;;;;;;7.32;5.28;;;;;;;23.44;61.80;97031.41;5025163;28;20060;-68
2022/05/15 07:15:46;;;;;;;9.20;6.07;;;;;;;23.47;63.18;97036.16;5043000;28;20562;-68
2022/05/15 07:18:13;;;;;;;10.27;5.78;;;;;;;23.30;62.67;97023.41;5043201;28;20049;-69
2022/05/15 07:20:41;;;;;;;7.88;6.07;;;;;;;23.48;63.07;97037.72;5025171;28;20061;-68
2022/05/15 07:23:08;;;;;;;8.80;5.03;;;;;;;23.46;61.83;97017.59;5043421;28;20435;-68
2022/05/15 07:25:35;;;;;;;5.97;5.38;;;;;;;23.60;62.26;97042.59;5041934;28;20056;-68
2022/05/15 07:28:01;;;;;;;8.15;6.18;;;;;;;23.57;62.27;97035.00;5043138;28;20541;-67
2022/05/15 07:30:28;;;;;;;7.68;6.35;;;;;;;23.85;61.87;97046.13;5043471;28;20059;-68
2022/05/15 07:32:55;;;;;;;6.65;5.30;;;;;;;23.87;58.47;97045.66;5043210;28;20146;-68
2022/05/15 07:35:22;;;;;;;8.90;5.22;;;;;;;24.19;58.58;97053.84;5043161;28;20056;-68
2022/05/15 07:37:53;;;;;;;14.68;5.50;;;;;;;24.46;54.57;97044.75;5042737;28;20083;-68
2022/05/15 07:40:21;;;;;;;8.82;4.30;;;;;;;24.49;52.34;97027.63;5042844;28;20136;-67
2022/05/15 07:42:49;;;;;;;5.85;4.90;;;;;;;24.82;49.07;97045.00;5026924;28;20102;-68
2022/05/15 07:45:19;;;;;;;5.32;4.82;;;;;;;24.43;50.97;97040.81;5028806;28;20065;-68
2022/05/15 07:47:46;;;;;;;7.82;4.75;;;;;;;23.86;52.28;97001.63;5046080;28;20084;-68
2022/05/15 07:50:14;;;;;;;8.70;4.20;;;;;;;23.57;48.75;97046.31;5046648;28;20067;-67
2022/05/15 07:52:41;;;;;;;8.23;4.47;;;;;;;23.69;52.75;97043.47;5046029;28;20056;-67
2022/05/15 07:55:11;;;;;;;7.47;4.03;;;;;;;23.85;53.46;97034.03;5042827;28;20041;-68
2022/05/15 07:57:37;;;;;;;7.10;4.57;;;;;;;24.19;54.54;97025.53;5025848;28;20144;-68
2022/05/15 08:00:08;;;;;;;5.82;4.30;;;;;;;24.52;52.23;97026.69;5009113;28;20071;-68
2022/05/15 08:02:36;;;;;;;7.63;4.60;;;;;;;24.97;50.78;97026.97;5026206;28;20453;-67
2022/05/15 08:08:03;;;;;;;8.65;5.28;;;;;;;24.40;51.96;97030.41;5025838;28;20057;-68
2022/05/15 08:10:36;;;;;;;8.17;4.50;;;;;;;24.75;50.87;97031.91;5008317;28;20053;-68
2022/05/15 08:13:04;;;;;;;5.07;4.40;;;;;;;24.96;48.54;97033.88;5026185;28;20308;-68
2022/05/15 08:15:31;;;;;;;5.20;4.10;;;;;;;24.73;49.19;97031.56;5008126;28;20474;-68
2022/05/15 08:23:33;;;;;;;6.15;4.32;;;;;;;25.22;48.90;97017.47;5025900;28;20057;-68
2022/05/15 08:23:44;;;;;;;5.60;5.10;;;;;;;25.93;46.98;97020.94;5025342;28;20148;-68
2022/05/15 08:26:11;;;;;;;4.95;4.47;;;;;;;26.10;46.75;97025.06;5025865;28;20053;-68
2022/05/15 08:28:39;;;;;;;3.63;3.33;;;;;;;26.27;45.70;97006.44;5025007;28;20053;-68
2022/05/15 08:31:08;;;;;;;5.22;4.38;;;;;;;26.24;44.05;97007.41;5025553;28;20049;-69
2022/05/15 08:33:37;;;;;;;4.10;3.70;;;;;;;26.51;44.32;97027.22;5025210;28;20574;-68
2022/05/15 08:36:06;;;;;;;6.25;4.13;;;;;;;25.99;44.58;97024.72;5007457;28;20045;-68
2022/05/15 08:38:33;;;;;;;6.00;4.25;;;;;;;26.52;43.89;97028.81;5007128;28;20520;-69
2022/05/15 08:41:11;;;;;;;4.43;4.03;;;;;;;26.55;43.10;96965.34;5025206;28;20110;-69
2022/05/15 08:43:50;;;;;;;5.82;3.95;;;;;;;27.18;41.38;97018.38;5007348;28;20053;-69
2022/05/15 08:46:48;;;;;;;5.05;3.65;;;;;;;27.11;41.16;97022.34;5025165;28;20054;-69
2022/05/15 08:49:30;;;;;;;3.75;3.45;;;;;;;27.38;41.74;97022.25;5002538;28;20084;-69
2022/05/15 08:52:01;;;;;;;3.95;3.63;;;;;;;27.30;41.24;97032.41;5025037;28;20049;-69
2022/05/15 08:54:29;;;;;;;4.35;3.75;;;;;;;27.16;41.38;97027.41;5024321;28;20151;-69
2022/05/15 08:56:56;;;;;;;5.78;4.63;;;;;;;26.95;41.87;96999.22;5022201;28;20057;-69
2022/05/15 09:00:02;;;;;;;5.05;4.53;;;;;;;26.89;43.76;97018.97;5044457;28;20056;-69
2022/05/15 09:02:52;;;;;;;4.30;4.00;;;;;;;26.39;41.79;96962.88;5019770;28;20183;-70
2022/05/15 09:05:19;;;;;;;4.78;4.32;;;;;;;26.29;44.43;97035.16;5043495;28;20067;-69
2022/05/15 09:07:52;;;;;;;6.63;4.35;;;;;;;26.29;42.42;97046.50;5027245;28;20135;-69
2022/05/15 09:10:32;;;;;;;8.73;4.17;;;;;;;25.89;41.58;96986.25;5044651;28;20079;-69
2022/05/15 09:13:08;;;;;;;10.57;3.97;;;;;;;26.31;42.71;97035.47;5044869;28;20311;-69
2022/05/15 09:15:41;;;;;;;13.75;4.63;;;;;;;26.22;42.75;97038.31;5044477;28;20053;-68
2022/05/15 09:18:14;;;;;;;5.40;4.25;;;;;;;26.25;42.40;97037.38;5044344;28;20450;-69
2022/05/15 09:20:47;;;;;;;5.35;4.85;;;;;;;26.37;42.69;97039.25;5044992;28;20064;-68
2022/05/15 09:23:19;;;;;;;;;;;;;;;26.60;39.99;97032.91;5045599;28;20045;-68
2022/05/15 09:25:54;;;;;;;5.15;3.72;;;;;;;26.41;41.00;97022.84;5044880;28;19925;-68
2022/05/15 09:28:23;;;;;;;5.45;4.85;;;;;;;26.45;40.42;96989.38;5044081;28;20522;-68
2022/05/15 09:30:50;;;;;;;6.25;3.90;;;;;;;26.18;40.40;96998.72;5044282;28;20106;-68
2022/05/15 09:33:24;;;;;;;5.15;4.15;;;;;;;25.74;42.32;97037.16;5044134;28;20084;-68
2022/05/15 09:35:51;;;;;;;6.85;4.18;;;;;;;25.75;43.08;97032.28;5044087;28;20049;-68
2022/05/15 09:38:28;;;;;;;6.07;4.22;;;;;;;25.78;41.36;96974.56;5026607;28;20052;-69
2022/05/15 09:44:03;;;;;;;4.20;3.72;;;;;;;26.79;39.75;97031.66;5044271;28;20361;-68
2022/05/15 09:46:31;;;;;;;4.40;3.95;;;;;;;27.35;40.29;97028.91;5026416;28;20060;-65
2022/05/15 09:49:03;;;;;;;4.35;4.05;;;;;;;27.43;38.93;96955.34;5023415;28;20092;-66
2022/05/15 09:51:47;;;;;;;4.85;3.85;;;;;;;27.98;38.77;97020.00;5006368;28;20046;-68
2022/05/15 09:54:33;;;;;;;7.75;4.75;;;;;;;28.11;40.02;97023.38;5024422;28;20053;-69
2022/05/15 09:57:25;;;;;;;4.68;4.28;;;;;;;27.45;40.10;97021.13;5039322;28;20049;-69
2022/05/15 10:00:00;;;;;;;5.78;4.68;;;;;;;27.76;39.99;97019.50;5043122;28;20125;-68
2022/05/15 10:02:38;;;;;;;4.40;4.00;;;;;;;28.06;39.09;97054.59;5026057;28;20068;-69
2022/05/15 10:05:31;;;;;;;6.55;4.60;;;;;;;27.39;39.25;97005.97;5044032;28;20478;-68
2022/05/15 10:08:09;;;;;;;7.60;5.50;;;;;;;27.76;38.17;97016.66;5043815;28;20499;-67
2022/05/15 10:11:06;;;;;;;4.60;4.10;;;;;;;27.28;38.57;97017.91;5043598;28;20151;-67
2022/05/15 10:14:00;;;;;;;5.57;4.97;;;;;;;27.60;39.25;97014.22;5044235;28;20060;-68
2022/05/15 10:16:31;;;;;;;7.70;3.53;;;;;;;28.45;38.06;97010.59;5035325;28;20075;-68
2022/05/15 10:19:24;;;;;;;4.95;4.47;;;;;;;28.78;38.07;97010.44;5043077;28;20065;-68
2022/05/15 10:22:04;;;;;;;4.90;4.40;;;;;;;29.08;36.28;97003.44;5023123;28;20071;-68
2022/05/15 10:24:37;;;;;;;5.93;4.90;;;;;;;29.63;36.71;96995.72;4986203;28;20671;-68
2022/05/15 10:27:27;;;;;;;4.78;3.90;;;;;;;29.85;34.96;96998.91;5004257;28;20086;-69
2022/05/15 10:30:14;;;;;;;7.13;4.40;;;;;;;30.31;35.78;96996.13;5002484;28;20104;-69
2022/05/15 10:32:58;;;;;;;4.75;4.25;;;;;;;30.44;34.86;96994.47;5003813;28;20135;-69
2022/05/15 10:35:35;;;;;;;4.63;4.22;;;;;;;30.42;34.98;97008.47;5004081;28;20054;-69
2022/05/15 10:38:27;;;;;;;4.70;4.25;;;;;;;29.20;34.88;96936.69;5004174;28;20061;-69
2022/05/15 10:41:07;;;;;;;5.30;4.82;;;;;;;29.29;35.62;96968.00;4987188;28;20757;-68
2022/05/15 10:44:34;;;;;;;4.95;3.95;;;;;;;30.22;34.98;96979.94;5021523;28;20049;-68
2022/05/15 10:47:11;;;;;;;6.10;5.22;;;;;;;29.59;36.37;96986.59;5006054;28;20064;-68
2022/05/15 10:50:09;;;;;;;5.07;4.32;;;;;;;30.21;35.32;96981.19;5005696;28;20049;-69
2022/05/15 10:52:48;;;;;;;6.20;4.30;;;;;;;30.42;34.49;96994.19;5023351;28;20064;-68
2022/05/15 10:58:36;;;;;;;5.53;4.25;;;;;;;28.27;36.73;96987.94;5003580;28;20145;-68
2022/05/15 11:01:29;;;;;;;5.72;4.38;;;;;;;27.78;37.49;96982.78;5003826;28;20050;-68
2022/05/15 11:04:32;;;;;;;6.13;4.05;;;;;;;27.17;38.50;96983.47;5001929;28;20054;-68
2022/05/15 11:07:07;;;;;;;5.10;3.90;;;;;;;26.56;39.34;96978.28;5003458;28;20510;-67
2022/05/15 11:10:20;;;;;;;8.20;4.50;;;;;;;26.70;39.58;96984.13;5003406;28;20526;-67
2022/05/15 11:13:12;;;;;;;5.20;3.85;;;;;;;26.60;40.14;96973.25;5000929;28;20057;-68
2022/05/15 11:16:14;;;;;;;9.02;4.68;;;;;;;26.57;39.86;96985.56;4985920;28;20552;-68
2022/05/15 11:19:14;;;;;;;4.85;3.35;;;;;;;26.71;39.93;96979.25;5007028;28;20064;-68
2022/05/15 11:22:00;;;;;;;5.80;3.88;;;;;;;26.66;39.96;96979.88;5007334;28;20054;-67
2022/05/15 11:24:49;;;;;;;3.65;3.35;;;;;;;26.92;38.87;96972.50;5006937;28;20435;-69
2022/05/15 11:27:28;;;;;;;6.82;3.72;;;;;;;26.89;39.71;96973.47;5007508;28;20064;-67
2022/05/15 11:30:00;;;;;;;5.50;4.68;;;;;;;27.32;38.94;96972.97;5007207;28;20531;-68
2022/05/15 11:33:01;;;;;;;8.65;5.05;;;;;;;26.57;40.04;96914.53;4989871;28;20173;-69
2022/05/15 11:35:33;;;;;;;5.07;3.83;;;;;;;26.68;39.87;96960.31;5006788;28;20049;-69
2022/05/15 11:38:03;;;;;;;6.50;3.70;;;;;;;26.62;40.11;96977.16;5007092;28;20050;-67
2022/05/15 11:40:46;;;;;;;6.97;3.55;;;;;;;26.91;40.25;96970.94;4989396;28;20237;-66
2022/05/15 11:43:31;;;;;;;7.00;3.50;;;;;;;26.41;40.73;96977.38;4989102;28;20081;-68
2022/05/15 11:46:16;;;;;;;5.53;3.90;;;;;;;25.91;41.79;96973.13;5008572;28;20062;-67
2022/05/15 11:48:43;;;;;;;4.25;3.28;;;;;;;25.78;42.25;96977.41;5026283;28;20054;-69
2022/05/15 11:51:12;;;;;;;5.10;3.95;;;;;;;25.71;42.79;96980.53;5025179;28;20057;-69
2022/05/15 11:53:56;;;;;;;5.10;3.55;;;;;;;25.94;42.12;96948.72;5025275;28;20076;-68
2022/05/15 11:56:40;;;;;;;4.70;3.38;;;;;;;26.38;40.90;96972.66;5031297;28;20489;-69
2022/05/15 11:59:16;;;;;;;4.53;4.13;;;;;;;26.55;40.83;96973.88;5045422;28;20549;-68
2022/05/15 12:01:47;;;;;;;4.85;3.97;;;;;;;26.55;40.84;96965.34;5045335;28;20056;-68
2022/05/15 12:04:49;;;;;;;3.97;3.60;;;;;;;26.65;41.47;96969.78;5028124;28;20522;-69
2022/05/15 12:07:15;;;;;;;10.90;4.35;;;;;;;26.84;41.44;96962.78;5045792;28;20084;-67
2022/05/15 12:09:44;;;;;;;5.05;4.50;;;;;;;27.47;39.29;96956.78;5046263;28;20071;-69
2022/05/15 12:12:20;;;;;;;4.20;3.80;;;;;;;27.80;38.55;96951.78;5030042;28;20061;-68